Time;durP1;ratioP1;P1;durP2;ratioP2;P2;SDS_P1;SDS_P2;PMS_P1;PMS_P2;Temp;Humidity;BMP_temperature;BMP_pressure;BME280_temperature;BME280_humidity;BME280_pressure;Samples;Min_cycle;Max_cycle;Signal;HPM_P1;HPM_P2
2022/10/31 00:01:20;;;;;;;0.10;0.10;;;;;;;12.38;100.00;102010.22;5046810;28;20498;-67
2022/10/31 00:03:47;;;;;;;0.10;0.10;;;;;;;12.43;100.00;102012.59;5020684;28;20144;-67
2022/10/31 00:06:12;;;;;;;0.10;0.10;;;;;;;12.35;100.00;101985.31;5018713;28;20028;-67
2022/10/31 00:08:38;;;;;;;0.10;0.10;;;;;;;12.49;100.00;102009.50;5032758;28;20035;-67
2022/10/31 00:11:03;;;;;;;0.10;0.10;;;;;;;12.50;100.00;101996.88;5039827;28;20262;-67
2022/10/31 00:13:28;;;;;;;0.10;0.10;;;;;;;12.41;100.00;102001.94;5037003;28;20033;-67
2022/10/31 00:15:54;;;;;;;0.03;0.03;;;;;;;12.22;100.00;102007.69;5038773;28;20024;-67
2022/10/31 00:18:19;;;;;;;0.10;0.10;;;;;;;12.01;100.00;102007.25;5037660;28;20033;-67
2022/10/31 00:20:44;;;;;;;0.10;0.10;;;;;;;11.89;100.00;102013.44;5037106;28;20067;-67
2022/10/31 00:23:10;;;;;;;0.10;0.10;;;;;;;11.63;100.00;101984.53;5037337;28;20518;-67
2022/10/31 00:25:38;;;;;;;0.10;0.10;;;;;;;11.65;100.00;102004.13;5042580;28;20042;-67
2022/10/31 00:28:05;;;;;;;0.10;0.10;;;;;;;11.54;100.00;102004.81;5038561;28;20024;-68
2022/10/31 00:30:31;;;;;;;0.08;0.08;;;;;;;11.49;100.00;102006.09;5025232;28;20537;-67
2022/10/31 00:32:56;;;;;;;0.00;0.00;;;;;;;11.35;100.00;101994.34;5040051;28;20028;-67
2022/10/31 00:35:22;;;;;;;0.10;0.10;;;;;;;11.32;100.00;101994.53;5042681;28;20024;-67
2022/10/31 00:37:47;;;;;;;0.52;0.52;;;;;;;11.34;100.00;102008.75;5017070;28;20064;-67
2022/10/31 00:40:12;;;;;;;0.10;0.10;;;;;;;11.04;100.00;101966.69;5040160;28;20140;-67
2022/10/31 00:42:39;;;;;;;0.10;0.10;;;;;;;11.24;100.00;102008.47;5042866;28;20025;-67
2022/10/31 00:45:05;;;;;;;0.00;0.00;;;;;;;11.24;100.00;102004.94;5025394;28;20401;-68
2022/10/31 00:47:30;;;;;;;0.10;0.10;;;;;;;11.27;100.00;102007.41;5049488;28;20029;-67
2022/10/31 00:49:55;;;;;;;0.10;0.10;;;;;;;11.29;100.00;102001.94;5038415;28;20061;-67
2022/10/31 00:52:21;;;;;;;0.00;0.00;;;;;;;11.31;100.00;102000.88;5041454;28;20033;-67
2022/10/31 00:54:46;;;;;;;0.05;0.05;;;;;;;11.32;100.00;101989.16;5040610;28;20531;-67
2022/10/31 00:57:11;;;;;;;0.10;0.10;;;;;;;11.28;100.00;101978.72;5040846;23;20073;-68
2022/10/31 00:59:37;;;;;;;0.10;0.10;;;;;;;11.23;100.00;102000.50;4993826;28;20136;-67
2022/10/31 01:02:02;;;;;;;0.40;0.40;;;;;;;11.02;100.00;101987.41;5003638;28;20461;-67
2022/10/31 01:04:27;;;;;;;0.70;0.70;;;;;;;10.73;100.00;101991.88;5014484;28;20186;-67
2022/10/31 01:06:52;;;;;;;1.30;1.20;;;;;;;10.38;100.00;101984.94;5014388;28;20164;-67
2022/10/31 01:09:18;;;;;;;0.30;0.30;;;;;;;10.10;100.00;101972.25;5021346;28;20025;-66
2022/10/31 01:11:43;;;;;;;0.20;0.20;;;;;;;10.06;100.00;101991.22;5001307;28;20029;-67
2022/10/31 01:14:09;;;;;;;0.30;0.30;;;;;;;10.14;100.00;102009.56;5018324;28;20040;-67
2022/10/31 01:16:34;;;;;;;0.10;0.10;;;;;;;9.98;100.00;101984.56;5007274;28;20036;-67
2022/10/31 01:19:00;;;;;;;0.10;0.10;;;;;;;10.12;100.00;101995.38;5019149;28;20080;-67
2022/10/31 01:21:27;;;;;;;0.00;0.00;;;;;;;10.25;100.00;101989.28;5020729;28;20071;-67
2022/10/31 01:23:54;;;;;;;0.10;0.10;;;;;;;10.33;100.00;101981.66;4988114;28;20022;-67
2022/10/31 01:26:37;;;;;;;0.00;0.00;;;;;;;10.59;100.00;102006.13;5020628;28;20477;-67
2022/10/31 01:29:05;;;;;;;0.10;0.10;;;;;;;10.67;100.00;102001.19;4998543;28;20053;-67
2022/10/31 01:31:33;;;;;;;0.00;0.00;;;;;;;10.76;100.00;101979.13;5003795;28;20033;-67
2022/10/31 01:33:58;;;;;;;0.10;0.10;;;;;;;10.85;100.00;101971.47;5019783;28;20493;-67
2022/10/31 01:36:26;;;;;;;0.10;0.10;;;;;;;10.93;100.00;101974.56;5020945;28;20108;-67
2022/10/31 01:38:53;;;;;;;0.10;0.10;;;;;;;11.02;100.00;101976.66;5023807;28;20469;-67
2022/10/31 01:41:23;;;;;;;0.10;0.10;;;;;;;10.95;100.00;101945.78;5019949;28;20562;-67
2022/10/31 01:44:00;;;;;;;0.10;0.10;;;;;;;11.08;100.00;101970.06;5001708;28;20025;-67
2022/10/31 01:46:31;;;;;;;0.10;0.10;;;;;;;11.07;100.00;101976.41;5005091;28;20702;-67
2022/10/31 01:48:59;;;;;;;0.10;0.10;;;;;;;11.02;100.00;101978.50;5003276;28;20022;-67
2022/10/31 01:51:28;;;;;;;0.03;0.03;;;;;;;10.75;100.00;101976.53;5017367;28;20390;-67
2022/10/31 01:53:55;;;;;;;0.10;0.10;;;;;;;10.48;100.00;101970.03;4998254;28;20801;-67
2022/10/31 01:56:21;;;;;;;0.10;0.10;;;;;;;10.36;100.00;101966.22;5000995;28;20033;-67
2022/10/31 01:58:46;;;;;;;0.10;0.10;;;;;;;10.29;100.00;101964.00;5005993;28;20113;-67
2022/10/31 02:01:12;;;;;;;0.10;0.10;;;;;;;10.36;100.00;101998.44;5021617;28;20478;-67
2022/10/31 02:03:38;;;;;;;0.10;0.10;;;;;;;10.19;100.00;101977.09;4997956;28;20439;-67
2022/10/31 02:06:06;;;;;;;0.10;0.10;;;;;;;10.36;100.00;101997.59;5020840;28;20068;-67
2022/10/31 02:08:33;;;;;;;0.10;0.10;;;;;;;10.16;100.00;101955.81;5019843;28;20040;-67
2022/10/31 02:11:00;;;;;;;0.10;0.10;;;;;;;10.39;100.00;101999.25;5021918;28;20160;-67
2022/10/31 02:13:26;;;;;;;0.10;0.10;;;;;;;10.27;100.00;101982.91;5016860;28;20030;-67
2022/10/31 02:15:54;;;;;;;0.10;0.10;;;;;;;10.30;100.00;101993.44;5015141;28;20039;-67
2022/10/31 02:18:20;;;;;;;0.00;0.00;;;;;;;10.27;100.00;101998.13;5019214;28;20060;-67
2022/10/31 02:20:59;;;;;;;0.10;0.10;;;;;;;10.17;100.00;101998.66;5002054;28;20046;-67
2022/10/31 02:23:43;;;;;;;0.10;0.10;;;;;;;10.11;100.00;101990.09;5015655;28;20127;-67
2022/10/31 02:26:22;;;;;;;0.00;0.00;;;;;;;9.89;100.00;101969.84;5017038;28;20421;-67
2022/10/31 02:29:15;;;;;;;0.10;0.10;;;;;;;9.87;100.00;101993.22;5013798;28;20614;-67
2022/10/31 02:31:50;;;;;;;0.00;0.00;;;;;;;9.82;100.00;101966.66;5018794;28;20037;-67
2022/10/31 02:34:22;;;;;;;0.00;0.00;;;;;;;9.92;100.00;101984.94;5013580;28;20148;-67
2022/10/31 02:36:58;;;;;;;0.10;0.10;;;;;;;9.80;100.00;101981.97;4999673;28;20087;-66
2022/10/31 02:39:40;;;;;;;0.10;0.10;;;;;;;9.57;100.00;101986.81;5003702;28;20033;-67
2022/10/31 02:42:08;;;;;;;0.20;0.20;;;;;;;9.35;100.00;101983.59;5013868;28;20120;-67
2022/10/31 02:44:36;;;;;;;0.40;0.40;;;;;;;9.29;100.00;101977.59;5013591;28;20030;-67
2022/10/31 02:47:16;;;;;;;0.47;0.47;;;;;;;9.21;100.00;101968.25;5019083;28;20026;-67
2022/10/31 02:49:50;;;;;;;0.40;0.40;;;;;;;9.21;100.00;101979.81;4998411;28;20438;-67
2022/10/31 02:52:20;;;;;;;0.30;0.30;;;;;;;9.15;100.00;101961.38;5019900;28;20053;-67
2022/10/31 02:54:47;;;;;;;0.10;0.10;;;;;;;9.26;100.00;101976.91;5020402;28;20107;-67
2022/10/31 02:57:13;;;;;;;0.10;0.10;;;;;;;9.26;100.00;101980.44;5024307;28;20025;-68
2022/10/31 02:59:42;;;;;;;0.10;0.10;;;;;;;9.24;100.00;101982.34;5022040;28;20446;-67
2022/10/31 03:02:10;;;;;;;0.10;0.10;;;;;;;9.35;100.00;101986.25;5007039;28;20117;-67
2022/10/31 03:04:45;;;;;;;0.10;0.10;;;;;;;9.45;100.00;101987.47;5026320;28;20037;-67
2022/10/31 03:07:16;;;;;;;0.08;0.08;;;;;;;9.54;100.00;101986.09;5013036;28;20061;-67
2022/10/31 03:09:57;;;;;;;0.45;0.45;;;;;;;9.38;100.00;101961.97;5020300;28;20543;-67
2022/10/31 03:12:34;;;;;;;0.40;0.40;;;;;;;9.49;100.00;101982.81;5022082;28;20855;-67
2022/10/31 03:15:19;;;;;;;0.10;0.10;;;;;;;9.45;100.00;101984.78;5001684;28;20068;-68
2022/10/31 03:17:54;;;;;;;0.35;0.35;;;;;;;9.41;100.00;101983.22;5001889;28;20128;-69
2022/10/31 03:20:22;;;;;;;0.57;0.57;;;;;;;9.32;100.00;101986.44;5018254;28;20041;-68
2022/10/31 03:22:47;;;;;;;0.55;0.55;;;;;;;9.11;100.00;101962.53;5004646;28;20029;-66
2022/10/31 03:25:13;;;;;;;0.50;0.50;;;;;;;8.96;100.00;101978.44;5005680;28;20071;-66
2022/10/31 03:27:41;;;;;;;0.40;0.40;;;;;;;8.92;100.00;101970.66;4985819;28;20091;-69
2022/10/31 03:30:07;;;;;;;0.20;0.20;;;;;;;9.03;100.00;101980.81;5005577;28;20109;-69
2022/10/31 03:32:46;;;;;;;0.10;0.10;;;;;;;9.13;100.00;101988.28;5001409;28;20049;-68
2022/10/31 03:35:12;;;;;;;0.22;0.22;;;;;;;9.17;100.00;101988.13;5018214;28;20068;-68
2022/10/31 03:37:39;;;;;;;0.13;0.13;;;;;;;9.25;100.00;101993.94;5005475;28;20113;-69
2022/10/31 03:40:06;;;;;;;0.10;0.10;;;;;;;9.16;100.00;101968.47;4999692;28;20481;-68
2022/10/31 03:42:34;;;;;;;0.00;0.00;;;;;;;9.26;100.00;101964.38;5000149;28;20025;-68
2022/10/31 03:45:06;;;;;;;0.10;0.10;;;;;;;9.56;100.00;101978.84;5000287;28;20512;-69
2022/10/31 03:47:32;;;;;;;0.10;0.10;;;;;;;9.54;100.00;101986.09;5021590;28;20035;-68
2022/10/31 03:49:58;;;;;;;0.22;0.22;;;;;;;9.45;100.00;101985.66;4999632;28;20505;-69
2022/10/31 03:52:29;;;;;;;0.20;0.20;;;;;;;9.45;100.00;101983.00;4998879;28;20605;-68
2022/10/31 03:54:59;;;;;;;0.20;0.20;;;;;;;9.50;100.00;101981.88;4999672;28;20026;-68
2022/10/31 03:57:27;;;;;;;0.93;0.93;;;;;;;9.33;100.00;101972.06;4996140;28;20418;-68
2022/10/31 04:00:13;;;;;;;0.22;0.22;;;;;;;9.21;100.00;101979.81;4997865;28;20033;-68
2022/10/31 04:02:40;;;;;;;0.20;0.20;;;;;;;9.10;100.00;101990.25;5016947;28;20034;-68
2022/10/31 04:05:07;;;;;;;0.22;0.22;;;;;;;9.00;100.00;101987.22;5018521;28;20031;-68
2022/10/31 04:07:37;;;;;;;0.30;0.30;;;;;;;8.95;100.00;101990.13;4999253;28;20030;-68
2022/10/31 04:10:06;;;;;;;0.00;0.00;;;;;;;8.93;100.00;101977.75;5004100;28;20503;-68
2022/10/31 04:12:32;;;;;;;0.00;0.00;;;;;;;8.93;100.00;101970.56;4997322;28;20038;-68
2022/10/31 04:14:58;;;;;;;0.10;0.10;;;;;;;8.97;100.00;101979.34;5001461;28;20037;-68
2022/10/31 04:17:23;;;;;;;0.00;0.00;;;;;;;9.03;100.00;101994.22;4998191;28;20037;-69
2022/10/31 04:19:49;;;;;;;0.20;0.20;;;;;;;8.76;100.00;101965.25;4998989;28;20766;-68
2022/10/31 04:22:14;;;;;;;0.50;0.50;;;;;;;8.90;100.00;101980.59;4998711;28;20839;-69
2022/10/31 04:24:40;;;;;;;0.38;0.38;;;;;;;8.64;100.00;101972.09;4999451;28;20059;-68
2022/10/31 04:27:06;;;;;;;0.30;0.30;;;;;;;8.59;100.00;101995.56;5019968;28;20036;-68
2022/10/31 04:29:31;;;;;;;0.35;0.35;;;;;;;8.46;100.00;101990.81;5000319;28;20373;-68
2022/10/31 04:31:56;;;;;;;0.30;0.30;;;;;;;8.35;100.00;101990.47;5013415;28;20037;-68
2022/10/31 04:34:21;;;;;;;0.30;0.30;;;;;;;8.24;100.00;101983.00;5014090;28;20485;-68
2022/10/31 04:36:47;;;;;;;0.40;0.40;;;;;;;8.16;100.00;101972.69;5022037;28;20057;-68
2022/10/31 04:39:12;;;;;;;0.17;0.17;;;;;;;8.19;100.00;101977.00;5004624;28;20036;-68
2022/10/31 04:41:37;;;;;;;0.30;0.30;;;;;;;7.90;100.00;101939.16;5002296;28;20037;-68
2022/10/31 04:44:03;;;;;;;0.30;0.20;;;;;;;8.17;100.00;101979.75;5021353;28;20470;-68
2022/10/31 04:46:28;;;;;;;0.10;0.10;;;;;;;8.13;100.00;101950.53;5003957;28;20038;-68
2022/10/31 04:48:53;;;;;;;0.00;0.00;;;;;;;8.38;100.00;101966.25;5003307;28;20032;-68
2022/10/31 04:51:19;;;;;;;0.00;0.00;;;;;;;8.39;100.00;101976.00;5003071;28;20057;-68
2022/10/31 04:53:44;;;;;;;0.10;0.10;;;;;;;8.23;100.00;101968.72;5021488;28;20052;-68
2022/10/31 04:56:10;;;;;;;0.10;0.10;;;;;;;8.38;100.00;101984.97;5020294;28;20033;-68
2022/10/31 04:58:35;;;;;;;0.57;0.57;;;;;;;8.40;100.00;101981.25;5022053;28;20496;-68
2022/10/31 05:01:00;;;;;;;0.60;0.60;;;;;;;8.46;100.00;101976.56;5018790;28;20083;-68
2022/10/31 05:03:26;;;;;;;0.50;0.50;;;;;;;8.53;100.00;101980.69;5020192;28;20037;-68
2022/10/31 05:05:51;;;;;;;0.70;0.70;;;;;;;8.43;100.00;101971.34;5021610;28;20025;-68
2022/10/31 05:08:17;;;;;;;0.40;0.40;;;;;;;8.43;100.00;101974.03;5002598;28;20051;-68
2022/10/31 05:10:42;;;;;;;0.52;0.52;;;;;;;8.44;100.00;101965.94;4993278;28;20054;-68
2022/10/31 05:13:07;;;;;;;0.40;0.40;;;;;;;8.39;100.00;101971.50;5017917;28;20143;-68
2022/10/31 05:15:33;;;;;;;0.30;0.30;;;;;;;8.28;100.00;101973.88;5000871;28;20122;-68
2022/10/31 05:17:58;;;;;;;0.10;0.10;;;;;;;8.14;100.00;101968.31;5016462;28;20033;-68
2022/10/31 05:20:26;;;;;;;0.40;0.40;;;;;;;8.08;100.00;101962.31;5017971;28;20096;-68
2022/10/31 05:22:53;;;;;;;0.10;0.10;;;;;;;8.17;100.00;101958.34;5015905;28;20032;-68
2022/10/31 05:25:20;;;;;;;0.10;0.10;;;;;;;8.29;100.00;101954.19;5003713;28;20515;-68
2022/10/31 05:27:47;;;;;;;0.10;0.10;;;;;;;8.44;100.00;101952.56;5002270;28;20033;-68
2022/10/31 05:30:14;;;;;;;0.00;0.00;;;;;;;8.49;100.00;101953.19;5019132;28;20033;-68
2022/10/31 05:32:41;;;;;;;0.05;0.05;;;;;;;8.43;100.00;101960.66;5015469;28;20021;-68
2022/10/31 05:35:08;;;;;;;0.30;0.30;;;;;;;8.16;100.00;101961.09;4999170;28;20021;-68
2022/10/31 05:37:36;;;;;;;0.38;0.38;;;;;;;7.98;100.00;101961.06;5018383;28;20029;-69
2022/10/31 05:40:07;;;;;;;0.28;0.28;;;;;;;7.85;100.00;101965.25;5016970;28;20060;-69
2022/10/31 05:42:32;;;;;;;0.40;0.40;;;;;;;7.80;100.00;101970.84;5001911;28;20075;-69
2022/10/31 05:44:58;;;;;;;0.80;0.80;;;;;;;7.77;100.00;101963.84;5016553;28;20123;-70
2022/10/31 05:47:23;;;;;;;0.50;0.50;;;;;;;7.75;100.00;101963.06;5001568;28;20048;-69
2022/10/31 05:49:49;;;;;;;0.43;0.43;;;;;;;7.75;100.00;101962.16;5019286;28;20083;-68
2022/10/31 05:52:14;;;;;;;0.17;0.17;;;;;;;7.81;100.00;101951.19;5024036;28;20033;-68
2022/10/31 05:54:40;;;;;;;0.10;0.10;;;;;;;7.91;100.00;101962.28;5017820;28;20058;-68
2022/10/31 05:57:05;;;;;;;0.08;0.08;;;;;;;8.03;100.00;101959.03;5019269;28;20037;-69
2022/10/31 05:59:30;;;;;;;0.03;0.03;;;;;;;8.07;100.00;101943.69;5019412;28;20069;-68
2022/10/31 06:01:56;;;;;;;0.08;0.08;;;;;;;8.21;100.00;101953.72;4999452;28;20087;-69
2022/10/31 06:04:21;;;;;;;0.10;0.10;;;;;;;8.22;100.00;101956.28;4989383;28;20032;-69
2022/10/31 06:06:47;;;;;;;0.10;0.10;;;;;;;8.21;100.00;101957.22;5006572;28;20412;-69
2022/10/31 06:09:12;;;;;;;0.10;0.10;;;;;;;8.16;100.00;101953.06;5018857;28;20029;-69
2022/10/31 06:11:37;;;;;;;0.10;0.10;;;;;;;8.09;100.00;101945.34;4985265;28;20147;-69
2022/10/31 06:14:04;;;;;;;0.40;0.40;;;;;;;7.87;100.00;101934.84;5017705;28;20533;-69
2022/10/31 06:16:29;;;;;;;0.17;0.17;;;;;;;7.55;100.00;101909.69;4999511;28;20488;-69
2022/10/31 06:18:55;;;;;;;0.73;0.73;;;;;;;7.65;100.00;101937.69;4998344;28;20521;-68
2022/10/31 06:21:20;;;;;;;0.10;0.10;;;;;;;7.68;100.00;101955.41;5004841;28;20029;-68
2022/10/31 06:23:45;;;;;;;0.10;0.10;;;;;;;7.59;100.00;101949.56;4989993;28;20045;-68
2022/10/31 06:26:11;;;;;;;0.10;0.10;;;;;;;7.61;100.00;101942.31;5008658;28;20029;-69
2022/10/31 06:28:36;;;;;;;0.15;0.15;;;;;;;7.56;100.00;101949.69;5028781;28;20036;-68
2022/10/31 06:31:01;;;;;;;0.10;0.10;;;;;;;7.62;100.00;101951.19;5021711;28;20075;-68
2022/10/31 06:33:27;;;;;;;0.10;0.10;;;;;;;7.48;100.00;101926.00;5009304;28;20033;-68
2022/10/31 06:35:52;;;;;;;0.10;0.10;;;;;;;7.67;100.00;101938.47;5024079;28;20029;-68
2022/10/31 06:38:17;;;;;;;0.05;0.05;;;;;;;7.79;100.00;101950.41;5024243;28;20033;-68
2022/10/31 06:40:43;;;;;;;0.10;0.10;;;;;;;7.86;100.00;101945.59;5005228;28;20044;-68
2022/10/31 06:43:08;;;;;;;0.10;0.10;;;;;;;7.80;100.00;101933.41;5014175;28;20679;-68
2022/10/31 06:45:34;;;;;;;0.10;0.10;;;;;;;7.76;100.00;101924.69;4989504;28;20026;-68
2022/10/31 06:47:59;;;;;;;0.10;0.10;;;;;;;7.76;100.00;101934.50;5004931;28;20131;-68
2022/10/31 06:50:24;;;;;;;0.10;0.10;;;;;;;7.83;100.00;101954.66;5022996;28;20021;-68
2022/10/31 06:52:54;;;;;;;0.08;0.08;;;;;;;7.61;100.00;101923.63;5025337;28;20025;-68
2022/10/31 06:55:23;;;;;;;0.10;0.10;;;;;;;7.65;100.00;101927.88;5023751;28;20391;-68
2022/10/31 06:57:51;;;;;;;0.10;0.10;;;;;;;7.87;100.00;101955.38;5019128;28;20037;-69
2022/10/31 07:00:17;;;;;;;0.10;0.10;;;;;;;7.72;100.00;101931.13;5002964;28;20061;-68
2022/10/31 07:02:42;;;;;;;0.10;0.10;;;;;;;7.90;100.00;101960.56;5020161;28;20113;-69
2022/10/31 07:05:08;;;;;;;0.00;0.00;;;;;;;8.01;100.00;101962.72;5003808;28;20422;-68
2022/10/31 07:07:33;;;;;;;0.10;0.10;;;;;;;8.06;100.00;101958.88;4997708;28;20538;-70
2022/10/31 07:09:58;;;;;;;0.10;0.10;;;;;;;8.11;100.00;101964.00;5012791;28;20053;-68
2022/10/31 07:12:23;;;;;;;0.10;0.10;;;;;;;7.98;100.00;101941.47;5014681;28;20034;-68
2022/10/31 07:14:49;;;;;;;0.10;0.10;;;;;;;8.09;100.00;101941.81;5002319;28;20052;-68
2022/10/31 07:17:15;;;;;;;0.10;0.10;;;;;;;8.16;100.00;101951.28;5017457;28;20545;-69
2022/10/31 07:19:40;;;;;;;0.10;0.10;;;;;;;8.26;100.00;101941.81;5001294;28;20030;-69
2022/10/31 07:22:06;;;;;;;0.03;0.03;;;;;;;8.30;100.00;101923.81;4999373;28;20036;-69
2022/10/31 07:24:31;;;;;;;0.10;0.10;;;;;;;8.49;100.00;101941.63;5001016;28;20030;-69
2022/10/31 07:26:56;;;;;;;0.00;0.00;;;;;;;8.58;100.00;101959.03;5026317;28;20112;-69
2022/10/31 07:29:21;;;;;;;0.10;0.10;;;;;;;8.63;100.00;101949.81;5001307;28;20401;-69
2022/10/31 07:31:47;;;;;;;0.10;0.10;;;;;;;8.70;100.00;101959.25;5003368;28;20037;-69
2022/10/31 07:34:12;;;;;;;0.10;0.10;;;;;;;8.78;100.00;101961.53;5000221;28;20104;-69
2022/10/31 07:36:37;;;;;;;0.10;0.10;;;;;;;8.82;100.00;101965.78;5002647;28;20030;-69
2022/10/31 07:39:03;;;;;;;0.10;0.10;;;;;;;8.89;100.00;101960.13;5032821;28;20499;-69
2022/10/31 07:41:28;;;;;;;0.10;0.10;;;;;;;8.88;100.00;101953.03;5039003;28;20515;-69
2022/10/31 07:43:53;;;;;;;0.10;0.10;;;;;;;8.85;100.00;101936.16;5004297;28;20470;-69
2022/10/31 07:46:19;;;;;;;0.10;0.10;;;;;;;9.06;100.00;101956.53;5009959;28;20030;-68
2022/10/31 07:48:44;;;;;;;0.10;0.10;;;;;;;9.12;100.00;101949.03;5036710;28;20021;-68
2022/10/31 07:51:09;;;;;;;0.10;0.10;;;;;;;9.20;100.00;101963.84;5010714;28;20048;-68
2022/10/31 07:53:34;;;;;;;0.20;0.20;;;;;;;9.20;100.00;101964.69;5033138;28;20206;-68
2022/10/31 07:56:00;;;;;;;0.20;0.20;;;;;;;9.21;100.00;101969.09;5017732;28;20472;-69
2022/10/31 07:58:25;;;;;;;0.20;0.20;;;;;;;9.15;100.00;101956.03;5018331;28;20026;-69
2022/10/31 08:00:50;;;;;;;0.10;0.10;;;;;;;9.23;100.00;101959.16;5009589;28;20033;-70
2022/10/31 08:03:17;;;;;;;0.10;0.10;;;;;;;9.31;100.00;101937.31;5016276;28;20081;-69
2022/10/31 08:05:45;;;;;;;0.10;0.10;;;;;;;9.50;100.00;101961.28;5016868;28;20028;-69
2022/10/31 08:08:11;;;;;;;0.20;0.20;;;;;;;9.70;100.00;101973.59;5021423;28;20063;-69
2022/10/31 08:10:37;;;;;;;0.20;0.20;;;;;;;9.75;100.00;101943.81;5034401;28;20029;-69
2022/10/31 08:13:04;;;;;;;0.25;0.25;;;;;;;10.12;100.00;101964.97;5002648;28;20428;-69
2022/10/31 08:15:30;;;;;;;0.17;0.17;;;;;;;10.27;100.00;101952.47;5035268;28;20102;-69
2022/10/31 08:17:56;;;;;;;0.20;0.20;;;;;;;10.48;100.00;101961.97;5014526;28;20112;-69
2022/10/31 08:20:21;;;;;;;0.10;0.10;;;;;;;10.73;100.00;101967.72;4998431;28;20120;-69
2022/10/31 08:22:58;;;;;;;0.10;0.10;;;;;;;10.90;100.00;101961.31;5026307;28;20126;-69
2022/10/31 08:25:24;;;;;;;0.10;0.10;;;;;;;11.04;100.00;101938.97;5023780;28;20453;-69
2022/10/31 08:27:51;;;;;;;0.10;0.10;;;;;;;11.35;100.00;101956.72;5027676;28;20027;-68
2022/10/31 08:30:17;;;;;;;0.10;0.10;;;;;;;11.50;100.00;101960.25;5023841;28;20156;-68
2022/10/31 08:32:42;;;;;;;0.10;0.10;;;;;;;11.65;100.00;101955.72;5026841;28;20575;-68
2022/10/31 08:35:07;;;;;;;0.20;0.20;;;;;;;11.89;100.00;101956.91;5021756;28;20060;-68
2022/10/31 08:37:33;;;;;;;0.10;0.10;;;;;;;12.14;100.00;101970.50;5018050;28;20030;-68
2022/10/31 08:39:58;;;;;;;0.10;0.10;;;;;;;12.39;100.00;101967.97;5025872;28;20029;-68
2022/10/31 08:42:23;;;;;;;0.10;0.10;;;;;;;12.62;100.00;101957.47;5023587;28;20075;-71
2022/10/31 08:44:48;;;;;;;0.10;0.10;;;;;;;12.90;100.00;101948.34;5020692;28;20025;-69
2022/10/31 08:47:14;;;;;;;0.08;0.08;;;;;;;13.14;100.00;101934.94;5019983;28;20033;-69
2022/10/31 08:49:39;;;;;;;0.10;0.10;;;;;;;13.34;100.00;101940.75;5006796;28;20033;-69
2022/10/31 08:52:04;;;;;;;0.10;0.10;;;;;;;13.71;100.00;101935.38;5016470;28;20519;-69
2022/10/31 08:54:30;;;;;;;0.10;0.10;;;;;;;14.03;100.00;101936.69;5021586;28;20026;-69
2022/10/31 08:56:55;;;;;;;0.10;0.10;;;;;;;14.18;100.00;101940.91;5006408;28;20029;-72
2022/10/31 08:59:20;;;;;;;0.10;0.10;;;;;;;14.08;100.00;101943.44;5008207;28;20132;-70
2022/10/31 09:01:46;;;;;;;0.10;0.10;;;;;;;14.04;100.00;101939.25;5024197;28;20485;-71
2022/10/31 09:04:11;;;;;;;0.10;0.10;;;;;;;13.93;100.00;101942.75;5020331;28;20072;-70
2022/10/31 09:06:36;;;;;;;0.10;0.10;;;;;;;14.06;100.00;101942.69;5021980;28;20100;-69
2022/10/31 09:09:02;;;;;;;0.10;0.10;;;;;;;14.09;100.00;101942.47;5026806;28;20021;-70
2022/10/31 09:11:29;;;;;;;0.10;0.10;;;;;;;14.07;100.00;101928.22;5003769;28;20030;-69
2022/10/31 09:13:55;;;;;;;0.10;0.10;;;;;;;14.06;100.00;101880.59;5027407;28;20488;-70
2022/10/31 09:16:20;;;;;;;0.10;0.10;;;;;;;14.12;100.00;101879.25;5005724;28;20025;-69
2022/10/31 09:18:45;;;;;;;0.20;0.20;;;;;;;14.07;100.00;101885.03;5026143;28;20033;-69
2022/10/31 09:21:11;;;;;;;0.10;0.10;;;;;;;14.05;100.00;101886.97;5022501;28;20052;-69
2022/10/31 09:23:36;;;;;;;0.10;0.10;;;;;;;14.06;100.00;101883.28;5021170;28;20340;-69
2022/10/31 09:26:02;;;;;;;0.10;0.10;;;;;;;14.19;100.00;101891.31;5020883;28;20458;-69
2022/10/31 09:28:28;;;;;;;0.20;0.20;;;;;;;14.17;100.00;101887.03;5003552;28;20128;-69
2022/10/31 09:30:53;;;;;;;0.15;0.15;;;;;;;14.20;100.00;101886.75;4991734;28;20025;-69
2022/10/31 09:33:19;;;;;;;0.10;0.10;;;;;;;14.25;100.00;101901.66;4999127;28;20125;-69
2022/10/31 09:35:44;;;;;;;0.13;0.13;;;;;;;14.35;100.00;101893.69;5016648;28;20460;-69
2022/10/31 09:38:15;;;;;;;0.35;0.35;;;;;;;14.48;100.00;101892.72;5012679;28;20077;-69
2022/10/31 09:40:43;;;;;;;0.10;0.10;;;;;;;14.47;100.00;101948.63;5018542;28;20141;-69
2022/10/31 09:43:15;;;;;;;0.10;0.10;;;;;;;14.79;100.00;101930.91;5017275;28;20075;-69
2022/10/31 09:46:08;;;;;;;0.10;0.10;;;;;;;15.02;100.00;101904.75;4987493;28;20443;-69
2022/10/31 09:49:04;;;;;;;0.10;0.10;;;;;;;15.26;100.00;101892.94;5016791;28;20029;-69
2022/10/31 09:51:35;;;;;;;0.20;0.20;;;;;;;15.39;100.00;101887.41;5019779;28;20477;-69
2022/10/31 09:54:17;;;;;;;0.10;0.10;;;;;;;15.21;100.00;101892.47;5006190;28;20033;-69
2022/10/31 09:56:43;;;;;;;0.20;0.20;;;;;;;15.30;100.00;101886.31;5006555;28;20144;-69
2022/10/31 09:59:36;;;;;;;0.05;0.05;;;;;;;15.21;100.00;101879.81;5018366;28;20034;-69
2022/10/31 10:02:22;;;;;;;0.38;0.38;;;;;;;15.15;100.00;101842.44;4989805;28;20048;-69
2022/10/31 10:05:01;;;;;;;0.20;0.20;;;;;;;15.21;100.00;101863.56;5004715;28;20369;-69
2022/10/31 10:07:32;;;;;;;0.10;0.10;;;;;;;15.11;100.00;101873.41;5021241;28;20259;-68
2022/10/31 10:10:07;;;;;;;0.13;0.13;;;;;;;15.08;100.00;101862.84;5022972;28;20572;-69
2022/10/31 10:12:52;;;;;;;0.20;0.20;;;;;;;15.11;100.00;101857.19;5001993;28;20320;-69
2022/10/31 10:15:36;;;;;;;0.40;0.40;;;;;;;15.14;100.00;101846.13;5026556;28;20077;-75
2022/10/31 10:18:02;;;;;;;;;;;;;;;15.34;100.00;101859.84;5004378;28;20068;-75
2022/10/31 10:20:37;;;;;;;0.10;0.10;;;;;;;15.27;100.00;101844.09;5020379;28;19920;-75
2022/10/31 10:23:25;;;;;;;0.10;0.10;;;;;;;15.39;100.00;101861.19;4998593;28;20116;-72
2022/10/31 10:26:16;;;;;;;0.52;0.50;;;;;;;15.36;100.00;101852.47;5032300;28;20036;-69
2022/10/31 10:28:43;;;;;;;0.17;0.17;;;;;;;15.45;100.00;101865.25;5019524;28;20041;-69
2022/10/31 10:31:17;;;;;;;2.50;1.70;;;;;;;15.53;100.00;101859.19;5000311;28;20668;-68
2022/10/31 10:34:02;;;;;;;0.28;0.28;;;;;;;15.74;100.00;101841.16;4998365;28;20034;-69
2022/10/31 10:37:21;;;;;;;0.10;0.10;;;;;;;15.89;100.00;101839.03;5015894;28;20045;-70
2022/10/31 10:39:51;;;;;;;0.10;0.10;;;;;;;16.10;100.00;101840.06;4945305;28;20083;-70
2022/10/31 10:48:21;;;;;;;0.05;0.05;;;;;;;16.60;100.00;101813.09;5019257;28;20032;-70
2022/10/31 10:50:48;;;;;;;0.73;0.73;;;;;;;16.35;100.00;101806.25;5007807;28;20504;-70
2022/10/31 10:53:48;;;;;;;0.10;0.10;;;;;;;16.43;100.00;101806.44;5005033;28;20070;-69
2022/10/31 10:56:22;;;;;;;0.05;0.05;;;;;;;16.49;100.00;101784.25;5019805;28;20045;-69
2022/10/31 10:58:48;;;;;;;0.10;0.10;;;;;;;16.58;100.00;101778.97;4980756;28;20084;-70
2022/10/31 11:01:14;;;;;;;0.10;0.10;;;;;;;16.71;100.00;101782.31;5005089;28;20735;-70
2022/10/31 11:03:40;;;;;;;0.10;0.10;;;;;;;16.70;100.00;101785.16;5017363;28;20041;-69
2022/10/31 11:06:21;;;;;;;0.10;0.10;;;;;;;16.70;100.00;101782.44;5009035;28;20032;-70
2022/10/31 11:08:47;;;;;;;0.10;0.10;;;;;;;16.84;100.00;101778.50;4998999;28;20486;-70
2022/10/31 11:11:31;;;;;;;0.10;0.10;;;;;;;16.87;100.00;101778.22;5008971;28;20029;-69
2022/10/31 11:14:00;;;;;;;0.10;0.10;;;;;;;17.22;100.00;101791.34;5013381;28;20119;-70
2022/10/31 11:16:32;;;;;;;0.10;0.10;;;;;;;17.55;100.00;101788.38;5009202;28;20036;-70
2022/10/31 11:19:12;;;;;;;0.03;0.03;;;;;;;17.62;100.00;101781.34;5004998;28;20048;-70
2022/10/31 11:21:37;;;;;;;0.05;0.05;;;;;;;17.84;100.00;101753.06;5006859;28;20025;-70
2022/10/31 11:24:11;;;;;;;0.10;0.10;;;;;;;17.76;100.00;101755.63;4991129;28;20028;-70
2022/10/31 11:26:41;;;;;;;0.10;0.10;;;;;;;18.21;100.00;101761.47;5031917;28;20136;-71
2022/10/31 11:29:25;;;;;;;0.10;0.10;;;;;;;17.99;100.00;101741.78;5004649;28;20025;-70
2022/10/31 11:31:53;;;;;;;0.10;0.10;;;;;;;18.16;100.00;101767.31;5018779;28;20037;-70
2022/10/31 11:34:33;;;;;;;0.10;0.10;;;;;;;18.07;100.00;101736.44;4995274;28;20060;-70